createdAt,value
2017-12-14T00:02:08.941Z,41.10
2017-12-14T00:04:42.319Z,41.00
2017-12-14T00:07:15.000Z,40.60
2017-12-14T00:09:45.641Z,40.50
2017-12-14T00:12:18.719Z,42.80
2017-12-14T00:14:50.179Z,43.70
2017-12-14T00:17:20.700Z,43.60
2017-12-14T00:19:53.180Z,45.20
2017-12-14T00:22:32.180Z,45.90
2017-12-14T00:25:09.480Z,46.60
2017-12-14T00:27:40.640Z,47.60
2017-12-14T00:30:11.680Z,48.30
2017-12-14T00:32:44.040Z,50.30
2017-12-14T00:35:15.302Z,50.70
2017-12-14T00:37:47.162Z,51.20
2017-12-14T00:40:18.299Z,53.70
2017-12-14T00:42:50.060Z,54.70
2017-12-14T00:45:21.099Z,54.70
2017-12-14T00:47:54.179Z,57.00
2017-12-14T00:50:26.959Z,56.60
2017-12-14T00:52:59.339Z,56.80
2017-12-14T00:55:31.080Z,56.40
2017-12-14T00:58:04.899Z,56.20
2017-12-14T01:00:42.700Z,55.60
2017-12-14T01:03:16.701Z,55.20
2017-12-14T01:05:47.539Z,56.20
2017-12-14T01:08:18.479Z,58.30
2017-12-14T01:10:50.339Z,58.60
2017-12-14T01:13:22.179Z,59.10
2017-12-14T01:15:53.839Z,59.50
2017-12-14T01:18:24.580Z,59.50
2017-12-14T01:20:56.842Z,59.30
2017-12-14T01:23:28.001Z,59.70
2017-12-14T01:25:58.179Z,59.20
2017-12-14T01:28:29.859Z,58.80
2017-12-14T01:31:01.179Z,58.80
2017-12-14T01:33:33.579Z,59.10
2017-12-14T01:36:05.639Z,58.60
2017-12-14T01:38:36.699Z,58.10
2017-12-14T01:41:07.939Z,57.90
2017-12-14T01:43:39.701Z,57.20
2017-12-14T01:46:10.319Z,56.30
2017-12-14T01:48:41.219Z,55.90
2017-12-14T01:51:12.819Z,56.40
2017-12-14T01:53:44.260Z,55.90
2017-12-14T01:56:17.159Z,56.30
2017-12-14T01:58:50.439Z,55.90
2017-12-14T02:01:24.779Z,54.70
2017-12-14T02:03:56.419Z,55.50
2017-12-14T02:06:28.879Z,58.00
2017-12-14T02:09:02.218Z,58.40
2017-12-14T02:11:32.708Z,58.40
2017-12-14T02:14:03.746Z,58.20
2017-12-14T02:16:37.206Z,58.20
2017-12-14T02:19:08.786Z,58.20
2017-12-14T02:21:42.606Z,57.60
2017-12-14T02:24:20.607Z,56.90
2017-12-14T02:26:52.146Z,56.90
2017-12-14T02:29:23.186Z,56.70
2017-12-14T02:31:53.946Z,56.70
2017-12-14T02:34:24.772Z,56.50
2017-12-14T02:36:56.106Z,57.00
2017-12-14T02:39:27.666Z,56.80
2017-12-14T02:41:58.406Z,58.20
2017-12-14T02:44:29.345Z,57.60
2017-12-14T02:47:00.488Z,58.40
2017-12-14T02:49:32.346Z,58.20
2017-12-14T02:52:05.206Z,58.30
2017-12-14T02:54:40.966Z,58.40
2017-12-14T02:57:13.146Z,56.90
2017-12-14T02:59:45.306Z,57.20
2017-12-14T03:02:17.066Z,55.90
2017-12-14T03:04:49.326Z,55.90
2017-12-14T03:07:23.546Z,56.90
2017-12-14T03:09:55.406Z,57.60
2017-12-14T03:12:27.566Z,57.60
2017-12-14T03:14:58.706Z,58.00
2017-12-14T03:17:32.305Z,56.60
2017-12-14T03:20:06.926Z,55.40
2017-12-14T03:22:38.906Z,54.00
2017-12-14T03:25:09.129Z,54.40
2017-12-14T03:27:42.926Z,52.90
2017-12-14T03:30:15.206Z,53.40
2017-12-14T03:32:45.826Z,52.80
2017-12-14T03:35:17.066Z,53.30
2017-12-14T03:37:49.446Z,51.60
2017-12-14T03:40:25.206Z,51.50
2017-12-14T03:42:56.026Z,50.50
2017-12-14T03:45:27.886Z,50.00
2017-12-14T03:47:59.846Z,49.10
2017-12-14T03:50:31.706Z,48.00
2017-12-14T03:53:03.066Z,47.50
2017-12-14T03:55:34.414Z,47.60
2017-12-14T03:58:06.366Z,45.60
2017-12-14T04:00:38.326Z,45.10
2017-12-14T04:03:10.486Z,44.50
2017-12-14T04:05:44.506Z,44.80
2017-12-14T04:08:16.205Z,45.40
2017-12-14T04:10:48.326Z,46.10
2017-12-14T04:13:20.687Z,46.60
2017-12-14T04:15:51.526Z,46.40
2017-12-14T04:18:24.026Z,47.50
2017-12-14T04:20:54.646Z,47.00
2017-12-14T04:23:25.575Z,51.40
2017-12-14T04:26:03.206Z,52.80
2017-12-14T04:28:37.486Z,54.00
2017-12-14T04:31:10.786Z,55.50
2017-12-14T04:33:44.573Z,56.30
2017-12-14T04:36:20.445Z,57.40
2017-12-14T04:38:53.219Z,58.40
2017-12-14T04:41:26.697Z,58.90
2017-12-14T04:43:57.749Z,59.30
2017-12-14T04:46:30.313Z,59.00
2017-12-14T04:49:05.654Z,59.40
2017-12-14T04:51:37.328Z,60.00
2017-12-14T04:54:11.194Z,61.00
2017-12-14T04:56:43.906Z,61.30
2017-12-14T04:59:15.986Z,61.10
2017-12-14T05:01:48.547Z,61.40
2017-12-14T05:04:21.026Z,61.40
2017-12-14T05:06:52.887Z,58.80
2017-12-14T05:09:32.526Z,57.80
2017-12-14T05:12:07.214Z,55.70
2017-12-14T05:14:39.107Z,56.20
2017-12-14T05:17:12.928Z,55.70
2017-12-14T05:19:44.226Z,55.90
2017-12-14T05:22:17.474Z,55.80
2017-12-14T05:24:49.126Z,56.10
2017-12-14T05:27:23.327Z,56.40
2017-12-14T05:29:55.186Z,55.90
2017-12-14T05:32:26.326Z,55.00
2017-12-14T05:34:58.486Z,55.50
2017-12-14T05:37:31.226Z,54.30
2017-12-14T05:40:03.446Z,53.70
2017-12-14T05:42:34.997Z,52.90
2017-12-14T05:45:07.230Z,53.50
2017-12-14T05:47:40.347Z,53.00
2017-12-14T05:50:11.907Z,52.90
2017-12-14T05:52:42.847Z,52.60
2017-12-14T05:55:15.507Z,52.90
2017-12-14T05:57:48.609Z,52.40
2017-12-14T06:00:22.826Z,52.70
2017-12-14T06:02:53.867Z,52.70
2017-12-14T06:05:25.626Z,52.70
2017-12-14T06:07:57.606Z,52.20
2017-12-14T06:10:29.148Z,51.80
2017-12-14T06:12:59.986Z,51.80
2017-12-14T06:15:30.806Z,51.70
2017-12-14T06:18:01.946Z,51.90
2017-12-14T06:20:34.525Z,51.00
2017-12-14T06:23:06.186Z,51.30
2017-12-14T06:25:38.346Z,52.80
2017-12-14T06:28:10.906Z,55.90
2017-12-14T06:30:41.966Z,55.80
2017-12-14T06:33:15.043Z,56.90
2017-12-14T06:35:46.085Z,56.80
2017-12-14T06:38:17.125Z,59.20
2017-12-14T06:40:48.886Z,59.10
2017-12-14T06:43:20.746Z,60.10
2017-12-14T06:45:54.265Z,60.70
2017-12-14T06:48:32.952Z,60.00
2017-12-14T06:51:03.906Z,60.40
2017-12-14T06:53:35.226Z,62.10
2017-12-14T06:56:06.906Z,63.00
2017-12-14T06:58:40.206Z,65.10
2017-12-14T07:01:11.766Z,63.00
2017-12-14T07:03:43.926Z,63.20
2017-12-14T07:06:17.113Z,63.60
2017-12-14T07:08:48.465Z,62.60
2017-12-14T07:11:23.710Z,63.10
2017-12-14T07:13:57.805Z,63.10
2017-12-14T07:16:29.765Z,63.20
2017-12-14T07:19:00.205Z,63.20
2017-12-14T07:21:37.246Z,62.50
2017-12-14T07:24:08.926Z,62.60
2017-12-14T07:26:42.226Z,62.60
2017-12-14T07:29:16.225Z,62.30
2017-12-14T07:31:49.525Z,62.30
2017-12-14T07:34:21.086Z,62.60
2017-12-14T07:36:56.725Z,62.60
2017-12-14T07:39:28.266Z,63.90
2017-12-14T07:41:59.266Z,62.90
2017-12-14T07:44:31.186Z,62.40
2017-12-14T07:47:13.585Z,62.90
2017-12-14T07:49:49.226Z,62.30
2017-12-14T07:52:22.926Z,62.30
2017-12-14T07:54:54.486Z,63.30
2017-12-14T07:57:26.546Z,64.10
2017-12-14T07:59:57.245Z,63.80
2017-12-14T08:02:32.826Z,62.90
2017-12-14T08:05:09.706Z,62.70
2017-12-14T08:07:43.931Z,62.00
2017-12-14T08:10:17.728Z,62.30
2017-12-14T08:12:50.206Z,63.30
2017-12-14T08:15:22.665Z,63.70
2017-12-14T08:17:54.845Z,63.10
2017-12-14T08:20:27.626Z,63.90
2017-12-14T08:22:57.945Z,63.90
2017-12-14T08:25:28.985Z,63.60
2017-12-14T08:28:00.850Z,63.50
2017-12-14T08:30:34.743Z,64.70
2017-12-14T08:33:05.485Z,64.40
2017-12-14T08:35:37.265Z,63.80
2017-12-14T08:38:08.484Z,62.50
2017-12-14T08:40:39.745Z,63.60
2017-12-14T08:43:11.252Z,64.20
2017-12-14T08:45:43.859Z,63.50
2017-12-14T08:48:17.359Z,63.70
2017-12-14T08:50:50.961Z,64.10
2017-12-14T08:53:21.800Z,64.00
2017-12-14T08:55:55.179Z,63.90
2017-12-14T08:58:26.238Z,63.30
2017-12-14T09:00:57.999Z,63.70
2017-12-14T09:03:30.161Z,63.60
2017-12-14T09:06:02.840Z,62.50
2017-12-14T09:08:34.399Z,63.20
2017-12-14T09:11:06.039Z,63.50
2017-12-14T09:13:38.724Z,63.60
2017-12-14T09:16:10.083Z,63.10
2017-12-14T09:18:41.434Z,61.80
2017-12-14T09:21:13.243Z,61.90
2017-12-14T09:23:47.265Z,63.50
2017-12-14T09:26:19.044Z,62.40
2017-12-14T09:28:50.179Z,63.80
2017-12-14T09:31:22.866Z,63.60
2017-12-14T09:33:54.189Z,63.30
2017-12-14T09:36:26.891Z,62.60
2017-12-14T09:38:58.843Z,62.50
2017-12-14T09:41:30.711Z,62.40
2017-12-14T09:44:02.264Z,62.80
2017-12-14T09:46:40.270Z,62.10
2017-12-14T09:49:12.113Z,62.10
2017-12-14T09:51:43.874Z,62.70
2017-12-14T09:54:15.729Z,61.90
2017-12-14T09:56:48.613Z,61.90
2017-12-14T09:59:22.942Z,62.10
2017-12-14T10:01:54.902Z,61.20
2017-12-14T10:04:26.962Z,61.60
2017-12-14T10:07:01.482Z,61.30
2017-12-14T10:09:34.162Z,61.50
2017-12-14T10:12:10.262Z,61.60
2017-12-14T10:14:42.402Z,62.10
2017-12-14T10:17:14.323Z,61.70
2017-12-14T10:19:49.262Z,59.70
2017-12-14T10:22:20.123Z,59.70
2017-12-14T10:24:52.524Z,59.30
2017-12-14T10:27:24.762Z,59.60
2017-12-14T10:29:57.542Z,60.00
2017-12-14T10:32:27.962Z,59.40
2017-12-14T10:34:59.822Z,60.10
2017-12-14T10:37:30.882Z,59.60
2017-12-14T10:40:09.062Z,60.60
2017-12-14T10:42:45.022Z,60.90
2017-12-14T10:45:16.263Z,61.50
2017-12-14T10:47:48.642Z,61.40
2017-12-14T10:50:22.042Z,61.20
2017-12-14T10:52:55.282Z,60.50
2017-12-14T10:55:31.382Z,61.40
2017-12-14T10:58:03.863Z,61.30
2017-12-14T11:00:42.381Z,62.10
2017-12-14T11:03:14.535Z,61.30
2017-12-14T11:05:48.763Z,61.90
2017-12-14T11:08:20.622Z,62.30
2017-12-14T11:10:52.682Z,63.00
2017-12-14T11:13:31.261Z,62.50
2017-12-14T11:16:03.062Z,62.50
2017-12-14T11:18:35.998Z,62.90
2017-12-14T11:21:07.902Z,63.10
2017-12-14T11:23:38.962Z,63.60
2017-12-14T11:26:14.402Z,64.30
2017-12-14T11:28:46.662Z,63.90
2017-12-14T11:31:18.723Z,63.90
2017-12-14T11:33:50.683Z,63.10
2017-12-14T11:36:23.282Z,62.50
2017-12-14T11:38:56.863Z,62.80
2017-12-14T11:41:28.722Z,63.10
2017-12-14T11:44:01.504Z,62.20
2017-12-14T11:46:31.822Z,62.20
2017-12-14T11:49:02.958Z,64.10
2017-12-14T11:51:37.603Z,63.60
2017-12-14T11:54:10.282Z,63.60
2017-12-14T11:56:42.283Z,62.90
2017-12-14T11:59:17.062Z,63.50
2017-12-14T12:01:48.284Z,64.40
2017-12-14T12:04:21.002Z,63.70
2017-12-14T12:06:53.042Z,62.50
2017-12-14T12:09:23.984Z,62.30
2017-12-14T12:12:00.044Z,62.90
2017-12-14T12:14:32.002Z,63.90
2017-12-14T12:17:05.103Z,64.60
2017-12-14T12:19:38.404Z,63.50
2017-12-14T12:22:09.443Z,64.60
2017-12-14T12:24:40.940Z,63.10
2017-12-14T12:27:12.222Z,62.90
2017-12-14T12:29:48.802Z,62.90
2017-12-14T12:32:20.962Z,62.70
2017-12-14T12:34:55.272Z,62.90
2017-12-14T12:37:27.462Z,63.50
2017-12-14T12:40:00.228Z,63.40
2017-12-14T12:42:33.291Z,63.00
2017-12-14T12:45:05.351Z,62.20
2017-12-14T12:47:37.970Z,63.30
2017-12-14T12:50:11.765Z,63.20
2017-12-14T12:52:43.284Z,62.70
2017-12-14T12:55:14.964Z,62.60
2017-12-14T12:57:46.283Z,62.70
2017-12-14T13:00:16.843Z,62.60
2017-12-14T13:02:49.126Z,62.80
2017-12-14T13:05:22.193Z,61.60
2017-12-14T13:07:55.313Z,61.00
2017-12-14T13:10:30.735Z,61.00
2017-12-14T13:13:02.275Z,61.40
2017-12-14T13:15:34.757Z,61.80
2017-12-14T13:18:06.010Z,61.40
2017-12-14T13:20:39.816Z,61.10
2017-12-14T13:23:11.330Z,61.80
2017-12-14T13:25:42.417Z,61.70
2017-12-14T13:28:14.769Z,61.80
2017-12-14T13:30:46.633Z,62.10
2017-12-14T13:33:18.909Z,63.60
2017-12-14T13:35:49.848Z,63.10
2017-12-14T13:38:21.908Z,63.90
2017-12-14T13:40:58.888Z,65.20
2017-12-14T13:43:31.037Z,65.40
2017-12-14T13:46:03.289Z,65.70
2017-12-14T13:48:35.331Z,67.10
2017-12-14T13:51:06.521Z,66.60
2017-12-14T13:53:39.920Z,66.70
2017-12-14T13:56:12.463Z,66.40
2017-12-14T13:58:44.766Z,66.20
2017-12-14T14:01:17.050Z,65.70
2017-12-14T14:03:50.947Z,65.90
2017-12-14T14:06:23.013Z,67.10
2017-12-14T14:08:55.286Z,66.80
2017-12-14T14:11:29.306Z,66.70
2017-12-14T14:25:40.749Z,64.90
2017-12-14T14:28:09.153Z,65.70
2017-12-14T14:30:37.506Z,66.60
2017-12-14T14:33:05.799Z,67.20
2017-12-14T14:35:34.400Z,67.60
2017-12-14T14:38:03.598Z,68.10
2017-12-14T14:40:31.670Z,68.00
2017-12-14T14:43:00.031Z,68.10
2017-12-14T14:45:28.430Z,68.10
2017-12-14T14:47:57.609Z,68.60
2017-12-14T14:50:25.984Z,68.60
2017-12-14T14:52:54.364Z,68.60
2017-12-14T14:55:22.857Z,68.20
2017-12-14T14:57:51.542Z,68.10
2017-12-14T15:00:19.747Z,67.40
2017-12-14T15:02:48.308Z,67.50
2017-12-14T15:05:17.590Z,66.80
2017-12-14T15:07:45.953Z,66.70
2017-12-14T15:10:14.353Z,66.10
2017-12-14T15:12:42.514Z,66.20
2017-12-14T15:15:10.933Z,65.70
2017-12-14T15:20:19.311Z,65.50
2017-12-14T15:22:47.710Z,65.60
2017-12-14T15:25:15.718Z,64.90
2017-12-14T15:30:56.310Z,64.70
2017-12-14T15:33:24.611Z,64.60
2017-12-14T15:35:53.190Z,64.30
2017-12-14T15:38:21.690Z,63.80
2017-12-14T15:40:50.191Z,63.50
2017-12-14T15:43:19.430Z,63.90
2017-12-14T15:45:47.950Z,63.50
2017-12-14T15:48:16.551Z,63.40
2017-12-14T15:50:45.928Z,63.20
2017-12-14T15:53:14.208Z,63.20
2017-12-14T15:55:42.649Z,63.30
2017-12-14T15:58:11.288Z,63.20
2017-12-14T16:00:39.589Z,63.60
2017-12-14T16:03:08.689Z,64.00
2017-12-14T16:05:37.128Z,64.10
2017-12-14T16:08:05.395Z,64.50
2017-12-14T16:10:33.673Z,64.40
2017-12-14T16:13:02.135Z,63.30
2017-12-14T16:15:30.655Z,63.80
2017-12-14T16:17:59.975Z,65.20
2017-12-14T16:20:29.374Z,64.70
2017-12-14T16:22:58.724Z,65.10
2017-12-14T16:25:27.004Z,65.10
2017-12-14T16:27:55.637Z,65.20
2017-12-14T16:30:24.179Z,65.50
2017-12-14T16:32:53.458Z,66.20
2017-12-14T16:35:21.958Z,65.70
2017-12-14T16:37:50.187Z,66.20
2017-12-14T16:40:18.710Z,66.80
2017-12-14T16:42:47.250Z,67.00
2017-12-14T16:45:15.793Z,67.00
2017-12-14T16:47:44.129Z,67.40
2017-12-14T16:50:12.427Z,68.10
2017-12-14T16:52:40.680Z,68.50
2017-12-14T16:55:09.798Z,68.00
2017-12-14T16:57:38.199Z,68.10
2017-12-14T17:00:06.660Z,67.70
2017-12-14T17:02:34.907Z,67.40
2017-12-14T17:05:03.199Z,68.30
2017-12-14T17:07:31.359Z,68.20
2017-12-14T17:09:59.645Z,67.70
2017-12-14T17:12:28.125Z,67.90
2017-12-14T17:14:56.323Z,68.10
2017-12-14T17:17:24.694Z,68.40
2017-12-14T17:19:53.295Z,68.30
2017-12-14T17:22:22.661Z,67.90
2017-12-14T17:24:51.254Z,67.90
2017-12-14T17:27:19.754Z,68.00
2017-12-14T17:29:49.034Z,68.60
2017-12-14T17:32:17.415Z,68.50
2017-12-14T17:34:45.894Z,68.80
2017-12-14T17:37:14.274Z,68.60
2017-12-14T17:39:42.675Z,68.40
2017-12-14T17:42:11.901Z,68.70
2017-12-14T17:44:40.256Z,68.70
2017-12-14T17:47:09.434Z,69.40
2017-12-14T17:49:38.834Z,69.30
2017-12-14T17:52:07.434Z,69.30
2017-12-14T17:54:36.514Z,69.60
2017-12-14T17:57:05.094Z,69.60
2017-12-14T17:59:33.355Z,69.60
2017-12-14T18:02:01.814Z,69.50
2017-12-14T18:04:30.414Z,69.80
2017-12-14T18:06:58.934Z,69.80
2017-12-14T18:09:28.234Z,69.60
2017-12-14T18:11:57.614Z,70.10
2017-12-14T18:14:27.054Z,70.20
2017-12-14T18:16:55.279Z,70.20
2017-12-14T18:19:23.580Z,70.30
2017-12-14T18:21:52.779Z,70.20
2017-12-14T18:24:22.060Z,70.50
2017-12-14T18:26:50.387Z,70.50
2017-12-14T18:29:18.719Z,70.40
2017-12-14T18:31:47.009Z,70.10
2017-12-14T18:34:16.081Z,70.70
2017-12-14T18:36:44.300Z,70.70
2017-12-14T18:39:12.739Z,71.20
2017-12-14T18:41:40.979Z,71.10
2017-12-14T18:44:09.560Z,70.90
2017-12-14T18:46:38.200Z,71.30
2017-12-14T18:49:07.600Z,71.40
2017-12-14T18:51:37.040Z,71.40
2017-12-14T18:54:05.839Z,71.40
2017-12-14T18:56:34.380Z,71.90
2017-12-14T18:59:02.859Z,72.10
2017-12-14T19:01:32.439Z,72.90
2017-12-14T19:04:00.880Z,72.90
2017-12-14T19:06:29.740Z,73.20
2017-12-14T19:08:58.403Z,73.30
2017-12-14T19:11:27.999Z,73.30
2017-12-14T19:13:56.259Z,73.30
2017-12-14T19:16:24.639Z,73.20
2017-12-14T19:18:53.119Z,72.50
2017-12-14T19:21:21.719Z,72.20
2017-12-14T19:23:50.779Z,72.50
2017-12-14T19:26:19.119Z,72.40
2017-12-14T19:28:47.379Z,72.70
2017-12-14T19:31:16.760Z,72.60
2017-12-14T19:33:45.119Z,72.50
2017-12-14T19:36:13.439Z,72.90
2017-12-14T19:38:42.698Z,72.70
2017-12-14T19:41:11.542Z,72.60
2017-12-14T19:43:40.379Z,72.60
2017-12-14T19:46:09.399Z,72.90
2017-12-14T19:48:38.219Z,72.20
2017-12-14T19:51:15.759Z,71.70
2017-12-14T19:54:00.487Z,71.40
2017-12-14T19:56:29.646Z,71.40
2017-12-14T19:58:58.957Z,71.40
2017-12-14T20:01:30.787Z,70.90
2017-12-14T20:04:00.079Z,70.90
2017-12-14T20:06:29.527Z,71.00
2017-12-14T20:14:48.140Z,69.60
2017-12-14T20:17:17.329Z,70.50
2017-12-14T20:19:46.351Z,71.40
2017-12-14T20:22:15.310Z,71.70
2017-12-14T20:24:43.958Z,71.10
2017-12-14T20:27:12.900Z,71.00
2017-12-14T20:32:44.186Z,71.00
2017-12-14T20:35:31.065Z,71.50
2017-12-14T20:38:03.010Z,71.20
2017-12-14T20:40:34.949Z,71.60
2017-12-14T20:43:15.407Z,71.70
2017-12-14T20:45:50.889Z,72.00
2017-12-14T20:48:26.307Z,71.70
2017-12-14T20:51:12.331Z,71.30
2017-12-14T20:53:44.649Z,71.30
2017-12-14T20:59:17.787Z,71.60
2017-12-14T21:01:54.826Z,71.10
2017-12-14T21:07:05.985Z,71.60
2017-12-14T21:09:44.446Z,71.90
2017-12-14T21:12:19.569Z,71.80
2017-12-14T21:14:55.590Z,71.80
2017-12-14T21:17:27.147Z,71.70
2017-12-14T21:20:00.448Z,71.80
2017-12-14T21:22:31.846Z,71.20
2017-12-14T21:25:06.187Z,70.60
2017-12-14T21:27:39.405Z,70.60
2017-12-14T21:30:12.927Z,70.10
2017-12-14T21:32:43.930Z,69.80
2017-12-14T21:35:32.086Z,69.20
2017-12-14T21:38:03.068Z,69.40
2017-12-14T21:40:34.826Z,69.50
2017-12-14T21:43:08.595Z,68.40
2017-12-14T21:45:40.375Z,68.40
2017-12-14T21:48:14.385Z,69.90
2017-12-14T21:50:47.427Z,69.90
2017-12-14T21:53:21.428Z,70.00
2017-12-14T21:58:49.465Z,70.20
2017-12-14T22:04:17.566Z,70.50
2017-12-14T22:09:42.490Z,70.70
2017-12-14T22:12:17.805Z,70.50
2017-12-14T22:14:56.294Z,70.50
2017-12-14T22:17:27.075Z,70.50
2017-12-14T22:20:00.362Z,70.60
2017-12-14T22:22:34.254Z,70.10
2017-12-14T22:25:06.212Z,69.90
2017-12-14T22:27:38.828Z,70.10
2017-12-14T22:30:13.965Z,70.20
2017-12-14T22:35:22.808Z,70.70
2017-12-14T22:37:53.385Z,70.80
2017-12-14T22:40:24.008Z,70.70
2017-12-14T22:42:55.245Z,71.10
2017-12-14T22:45:26.887Z,71.10
2017-12-14T22:47:58.728Z,71.30
2017-12-14T22:50:28.844Z,71.30
2017-12-14T22:53:00.465Z,71.10
2017-12-14T22:55:30.849Z,71.10
2017-12-14T22:58:01.286Z,70.90
2017-12-14T23:00:31.665Z,70.90
2017-12-14T23:03:11.263Z,70.40
2017-12-14T23:08:38.213Z,70.50
2017-12-14T23:13:58.464Z,70.50
2017-12-14T23:16:27.564Z,70.50
2017-12-14T23:21:54.250Z,70.60
2017-12-14T23:27:26.546Z,70.70
2017-12-14T23:29:57.945Z,71.10
2017-12-14T23:32:28.244Z,71.20
2017-12-14T23:34:58.005Z,71.30
2017-12-14T23:37:28.605Z,71.50
2017-12-14T23:39:58.509Z,72.50
2017-12-14T23:42:35.229Z,71.90
2017-12-14T23:45:10.006Z,71.60
2017-12-14T23:47:46.245Z,71.80
2017-12-14T23:50:16.510Z,71.60
2017-12-14T23:52:46.727Z,72.20
2017-12-14T23:55:17.625Z,72.20
2017-12-14T23:57:49.829Z,72.30
